sensor_id;sensor_type;location;lat;lon;timestamp;pressure;altitude;pressure_sealevel;temperature;humidity
51752;BME280;37828;45.164;5.738;2022-09-09T19:00:05;98569.47;;;24.50;34.94
51752;BME280;37828;45.164;5.738;2022-09-09T19:00:19;98572.75;;;24.52;35.15
51752;BME280;37828;45.164;5.738;2022-09-09T19:00:29;98573.56;;;24.53;34.81
51752;BME280;37828;45.164;5.738;2022-09-09T19:00:45;98580.50;;;24.54;35.21
51752;BME280;37828;45.164;5.738;2022-09-09T19:00:55;98576.03;;;24.54;34.84
51752;BME280;37828;45.164;5.738;2022-09-09T19:01:09;98576.84;;;24.55;34.77
51752;BME280;37828;45.164;5.738;2022-09-09T19:01:22;98576.84;;;24.55;35.13
51752;BME280;37828;45.164;5.738;2022-09-09T19:01:33;98575.84;;;24.56;35.06
51752;BME280;37828;45.164;5.738;2022-09-09T19:01:46;98574.19;;;24.55;34.79
51752;BME280;37828;45.164;5.738;2022-09-09T19:01:57;98577.66;;;24.55;35.01
51752;BME280;37828;45.164;5.738;2022-09-09T19:02:09;98574.19;;;24.55;34.96
51752;BME280;37828;45.164;5.738;2022-09-09T19:02:21;98586.44;;;24.56;34.94
51752;BME280;37828;45.164;5.738;2022-09-09T19:02:32;98577.84;;;24.54;34.96
51752;BME280;37828;45.164;5.738;2022-09-09T19:02:42;98581.94;;;24.57;34.77
51752;BME280;37828;45.164;5.738;2022-09-09T19:02:53;98574.19;;;24.55;34.71
51752;BME280;37828;45.164;5.738;2022-09-09T19:03:03;98576.84;;;24.55;34.65
51752;BME280;37828;45.164;5.738;2022-09-09T19:03:14;98578.50;;;24.56;34.89
51752;BME280;37828;45.164;5.738;2022-09-09T19:03:30;98582.75;;;24.57;34.61
51752;BME280;37828;45.164;5.738;2022-09-09T19:03:41;98578.50;;;24.56;35.01
51752;BME280;37828;45.164;5.738;2022-09-09T19:03:52;98577.66;;;24.55;34.92
51752;BME280;37828;45.164;5.738;2022-09-09T19:04:04;98581.94;;;24.57;35.13
51752;BME280;37828;45.164;5.738;2022-09-09T19:04:16;98580.13;;;24.57;34.83
51752;BME280;37828;45.164;5.738;2022-09-09T19:04:29;98583.56;;;24.58;34.94
51752;BME280;37828;45.164;5.738;2022-09-09T19:04:42;98586.22;;;24.58;35.12
51752;BME280;37828;45.164;5.738;2022-09-09T19:04:52;98582.75;;;24.57;34.90
51752;BME280;37828;45.164;5.738;2022-09-09T19:05:03;98582.75;;;24.57;34.78
51752;BME280;37828;45.164;5.738;2022-09-09T19:05:14;98590.53;;;24.59;35.24
51752;BME280;37828;45.164;5.738;2022-09-09T19:05:25;98586.22;;;24.58;34.97
51752;BME280;37828;45.164;5.738;2022-09-09T19:05:36;98583.56;;;24.58;34.90
51752;BME280;37828;45.164;5.738;2022-09-09T19:05:46;98586.22;;;24.58;34.99
51752;BME280;37828;45.164;5.738;2022-09-09T19:06:01;98587.03;;;24.58;35.02
51752;BME280;37828;45.164;5.738;2022-09-09T19:06:16;98583.56;;;24.58;35.13
51752;BME280;37828;45.164;5.738;2022-09-09T19:06:31;98574.63;;;24.59;35.06
51752;BME280;37828;45.164;5.738;2022-09-09T19:06:43;98586.03;;;24.59;34.97
51752;BME280;37828;45.164;5.738;2022-09-09T19:06:55;98587.03;;;24.58;34.97
51752;BME280;37828;45.164;5.738;2022-09-09T19:07:07;98577.47;;;24.57;34.92
51752;BME280;37828;45.164;5.738;2022-09-09T19:07:18;98595.84;;;24.59;35.01
51752;BME280;37828;45.164;5.738;2022-09-09T19:07:29;98589.69;;;24.58;35.02
51752;BME280;37828;45.164;5.738;2022-09-09T19:07:40;98580.94;;;24.58;35.06
51752;BME280;37828;45.164;5.738;2022-09-09T19:07:50;98592.34;;;24.58;35.01
51752;BME280;37828;45.164;5.738;2022-09-09T19:08:01;98588.88;;;24.58;35.23
51752;BME280;37828;45.164;5.738;2022-09-09T19:08:12;98588.88;;;24.58;35.09
51752;BME280;37828;45.164;5.738;2022-09-09T19:08:23;98587.03;;;24.58;35.13
51752;BME280;37828;45.164;5.738;2022-09-09T19:08:36;98588.69;;;24.59;35.00
51752;BME280;37828;45.164;5.738;2022-09-09T19:08:47;98591.34;;;24.59;35.24
51752;BME280;37828;45.164;5.738;2022-09-09T19:08:58;98584.38;;;24.58;35.01
51752;BME280;37828;45.164;5.738;2022-09-09T19:09:12;98587.03;;;24.58;35.01
51752;BME280;37828;45.164;5.738;2022-09-09T19:09:26;98581.75;;;24.58;35.30
51752;BME280;37828;45.164;5.738;2022-09-09T19:09:38;98592.34;;;24.58;35.11
51752;BME280;37828;45.164;5.738;2022-09-09T19:09:49;98589.69;;;24.58;35.11
51752;BME280;37828;45.164;5.738;2022-09-09T19:09:59;98583.56;;;24.58;35.32
51752;BME280;37828;45.164;5.738;2022-09-09T19:10:12;98595.00;;;24.58;35.08
51752;BME280;37828;45.164;5.738;2022-09-09T19:10:24;98591.53;;;24.58;34.95
51752;BME280;37828;45.164;5.738;2022-09-09T19:10:36;98594.00;;;24.59;35.30
51752;BME280;37828;45.164;5.738;2022-09-09T19:10:46;98587.03;;;24.58;35.43
51752;BME280;37828;45.164;5.738;2022-09-09T19:11:00;98595.84;;;24.59;35.17
51752;BME280;37828;45.164;5.738;2022-09-09T19:11:15;98592.16;;;24.60;35.18
51752;BME280;37828;45.164;5.738;2022-09-09T19:11:28;98587.88;;;24.59;35.21
51752;BME280;37828;45.164;5.738;2022-09-09T19:11:39;98598.50;;;24.59;35.37
51752;BME280;37828;45.164;5.738;2022-09-09T19:11:50;98587.88;;;24.59;35.24
51752;BME280;37828;45.164;5.738;2022-09-09T19:12:01;98589.69;;;24.58;35.38
51752;BME280;37828;45.164;5.738;2022-09-09T19:12:12;98588.88;;;24.58;35.21
51752;BME280;37828;45.164;5.738;2022-09-09T19:12:22;98591.34;;;24.59;35.24
51752;BME280;37828;45.164;5.738;2022-09-09T19:12:33;98589.50;;;24.60;35.47
51752;BME280;37828;45.164;5.738;2022-09-09T19:12:43;98586.03;;;24.59;35.20
51752;BME280;37828;45.164;5.738;2022-09-09T19:12:54;98590.31;;;24.60;35.26
51752;BME280;37828;45.164;5.738;2022-09-09T19:13:05;98590.31;;;24.60;35.35
51752;BME280;37828;45.164;5.738;2022-09-09T19:13:16;98586.84;;;24.60;35.18
51752;BME280;37828;45.164;5.738;2022-09-09T19:13:26;98588.69;;;24.59;35.33
51752;BME280;37828;45.164;5.738;2022-09-09T19:13:37;98591.34;;;24.59;35.13
51752;BME280;37828;45.164;5.738;2022-09-09T19:13:57;98594.00;;;24.59;35.12
51752;BME280;37828;45.164;5.738;2022-09-09T19:14:11;98590.53;;;24.59;35.29
51752;BME280;37828;45.164;5.738;2022-09-09T19:14:22;98587.69;;;24.60;35.29
51752;BME280;37828;45.164;5.738;2022-09-09T19:14:33;98582.38;;;24.60;35.41
51752;BME280;37828;45.164;5.738;2022-09-09T19:14:43;98591.34;;;24.59;35.08
51752;BME280;37828;45.164;5.738;2022-09-09T19:14:54;98587.03;;;24.58;35.19
51752;BME280;37828;45.164;5.738;2022-09-09T19:15:05;98595.84;;;24.59;35.41
51752;BME280;37828;45.164;5.738;2022-09-09T19:15:16;98588.69;;;24.59;35.29
51752;BME280;37828;45.164;5.738;2022-09-09T19:15:27;98588.69;;;24.59;35.50
51752;BME280;37828;45.164;5.738;2022-09-09T19:15:39;98591.34;;;24.59;35.42
51752;BME280;37828;45.164;5.738;2022-09-09T19:15:50;98592.97;;;24.60;35.57
51752;BME280;37828;45.164;5.738;2022-09-09T19:16:10;98587.69;;;24.60;35.42
51752;BME280;37828;45.164;5.738;2022-09-09T19:16:23;98595.63;;;24.60;35.66
51752;BME280;37828;45.164;5.738;2022-09-09T19:16:34;98586.84;;;24.60;35.59
51752;BME280;37828;45.164;5.738;2022-09-09T19:16:46;98591.13;;;24.61;35.48
51752;BME280;37828;45.164;5.738;2022-09-09T19:16:58;98591.97;;;24.61;35.61
51752;BME280;37828;45.164;5.738;2022-09-09T19:17:10;98588.47;;;24.61;35.67
51752;BME280;37828;45.164;5.738;2022-09-09T19:17:20;98596.44;;;24.61;35.71
51752;BME280;37828;45.164;5.738;2022-09-09T19:17:31;98588.47;;;24.61;35.37
51752;BME280;37828;45.164;5.738;2022-09-09T19:17:43;98594.00;;;24.59;35.24
51752;BME280;37828;45.164;5.738;2022-09-09T19:17:54;98589.50;;;24.60;35.61
51752;BME280;37828;45.164;5.738;2022-09-09T19:18:06;98589.50;;;24.60;35.62
51752;BME280;37828;45.164;5.738;2022-09-09T19:18:16;98594.00;;;24.59;35.38
51752;BME280;37828;45.164;5.738;2022-09-09T19:18:27;98590.31;;;24.60;35.46
51752;BME280;37828;45.164;5.738;2022-09-09T19:18:39;98590.31;;;24.60;35.54
51752;BME280;37828;45.164;5.738;2022-09-09T19:18:51;98590.31;;;24.60;35.57
51752;BME280;37828;45.164;5.738;2022-09-09T19:19:06;98591.13;;;24.61;35.46
51752;BME280;37828;45.164;5.738;2022-09-09T19:19:20;98592.97;;;24.60;35.61
51752;BME280;37828;45.164;5.738;2022-09-09T19:19:32;98599.09;;;24.61;35.57
51752;BME280;37828;45.164;5.738;2022-09-09T19:19:42;98597.28;;;24.61;35.46
51752;BME280;37828;45.164;5.738;2022-09-09T19:19:53;98602.59;;;24.61;35.46
51752;BME280;37828;45.164;5.738;2022-09-09T19:20:04;98600.75;;;24.62;35.41
51752;BME280;37828;45.164;5.738;2022-09-09T19:20:18;98597.28;;;24.61;35.28
51752;BME280;37828;45.164;5.738;2022-09-09T19:20:32;98600.75;;;24.62;35.37
51752;BME280;37828;45.164;5.738;2022-09-09T19:20:44;98603.41;;;24.62;35.52
51752;BME280;37828;45.164;5.738;2022-09-09T19:20:55;98598.91;;;24.62;35.40
51752;BME280;37828;45.164;5.738;2022-09-09T19:21:11;98606.06;;;24.62;35.51
51752;BME280;37828;45.164;5.738;2022-09-09T19:21:25;98600.94;;;24.60;35.29
51752;BME280;37828;45.164;5.738;2022-09-09T19:21:37;98599.09;;;24.61;35.32
51752;BME280;37828;45.164;5.738;2022-09-09T19:21:48;98602.59;;;24.61;35.69
51752;BME280;37828;45.164;5.738;2022-09-09T19:22:01;98599.09;;;24.61;35.53
51752;BME280;37828;45.164;5.738;2022-09-09T19:22:12;98604.41;;;24.61;35.47
51752;BME280;37828;45.164;5.738;2022-09-09T19:22:23;98604.22;;;24.62;35.60
51752;BME280;37828;45.164;5.738;2022-09-09T19:22:35;98605.22;;;24.61;35.67
51752;BME280;37828;45.164;5.738;2022-09-09T19:22:46;98599.94;;;24.61;35.59
51752;BME280;37828;45.164;5.738;2022-09-09T19:22:56;98601.56;;;24.62;35.40
51752;BME280;37828;45.164;5.738;2022-09-09T19:23:07;98601.75;;;24.61;35.44
51752;BME280;37828;45.164;5.738;2022-09-09T19:23:17;98602.59;;;24.61;35.70
51752;BME280;37828;45.164;5.738;2022-09-09T19:23:28;98601.56;;;24.62;35.43
51752;BME280;37828;45.164;5.738;2022-09-09T19:23:40;98611.34;;;24.62;35.63
51752;BME280;37828;45.164;5.738;2022-09-09T19:24:08;98607.88;;;24.61;35.41
51752;BME280;37828;45.164;5.738;2022-09-09T19:24:22;98607.88;;;24.61;35.40
51752;BME280;37828;45.164;5.738;2022-09-09T19:24:34;98607.88;;;24.61;35.30
51752;BME280;37828;45.164;5.738;2022-09-09T19:24:46;98605.22;;;24.61;35.40
51752;BME280;37828;45.164;5.738;2022-09-09T19:24:58;98616.66;;;24.62;35.70
51752;BME280;37828;45.164;5.738;2022-09-09T19:25:09;98611.34;;;24.62;35.42
51752;BME280;37828;45.164;5.738;2022-09-09T19:25:20;98605.22;;;24.61;35.52
51752;BME280;37828;45.164;5.738;2022-09-09T19:25:51;98610.31;;;24.63;35.30
51752;BME280;37828;45.164;5.738;2022-09-09T19:26:02;98605.84;;;24.63;35.17
51752;BME280;37828;45.164;5.738;2022-09-09T19:26:15;98604.41;;;24.61;35.24
51752;BME280;37828;45.164;5.738;2022-09-09T19:26:29;98620.94;;;24.63;35.45
51752;BME280;37828;45.164;5.738;2022-09-09T19:26:44;98610.53;;;24.61;35.53
51752;BME280;37828;45.164;5.738;2022-09-09T19:26:58;98609.50;;;24.62;35.55
51752;BME280;37828;45.164;5.738;2022-09-09T19:27:10;98614.81;;;24.62;35.63
51752;BME280;37828;45.164;5.738;2022-09-09T19:27:21;98615.84;;;24.61;35.55
51752;BME280;37828;45.164;5.738;2022-09-09T19:27:32;98611.53;;;24.60;35.49
51752;BME280;37828;45.164;5.738;2022-09-09T19:27:43;98609.69;;;24.61;35.47
51752;BME280;37828;45.164;5.738;2022-09-09T19:27:54;98619.50;;;24.60;35.42
51752;BME280;37828;45.164;5.738;2022-09-09T19:28:05;98605.22;;;24.61;35.71
51752;BME280;37828;45.164;5.738;2022-09-09T19:28:15;98618.50;;;24.61;35.49
51752;BME280;37828;45.164;5.738;2022-09-09T19:28:26;98619.31;;;24.62;35.63
51752;BME280;37828;45.164;5.738;2022-09-09T19:28:37;98618.50;;;24.61;35.71
51752;BME280;37828;45.164;5.738;2022-09-09T19:28:49;98621.97;;;24.62;35.77
51752;BME280;37828;45.164;5.738;2022-09-09T19:29:01;98618.50;;;24.61;35.70
51752;BME280;37828;45.164;5.738;2022-09-09T19:29:15;98622.78;;;24.62;35.46
51752;BME280;37828;45.164;5.738;2022-09-09T19:29:28;98618.50;;;24.61;35.48
51752;BME280;37828;45.164;5.738;2022-09-09T19:29:39;98621.97;;;24.62;35.76
51752;BME280;37828;45.164;5.738;2022-09-09T19:29:52;98611.34;;;24.62;35.58
51752;BME280;37828;45.164;5.738;2022-09-09T19:30:03;98612.97;;;24.63;35.79
51752;BME280;37828;45.164;5.738;2022-09-09T19:30:14;98619.09;;;24.63;35.60
51752;BME280;37828;45.164;5.738;2022-09-09T19:30:25;98618.28;;;24.63;35.48
51752;BME280;37828;45.164;5.738;2022-09-09T19:30:36;98617.47;;;24.62;35.75
51752;BME280;37828;45.164;5.738;2022-09-09T19:30:47;98620.31;;;24.61;35.63
51752;BME280;37828;45.164;5.738;2022-09-09T19:31:19;98619.94;;;24.64;35.78
51752;BME280;37828;45.164;5.738;2022-09-09T19:31:29;98620.94;;;24.63;35.61
51752;BME280;37828;45.164;5.738;2022-09-09T19:31:41;98609.50;;;24.62;35.92
51752;BME280;37828;45.164;5.738;2022-09-09T19:31:54;98611.13;;;24.63;35.90
51752;BME280;37828;45.164;5.738;2022-09-09T19:32:05;98616.66;;;24.62;35.83
51752;BME280;37828;45.164;5.738;2022-09-09T19:32:15;98621.97;;;24.62;35.83
51752;BME280;37828;45.164;5.738;2022-09-09T19:32:27;98623.59;;;24.63;35.79
51752;BME280;37828;45.164;5.738;2022-09-09T19:32:38;98620.13;;;24.62;35.74
51752;BME280;37828;45.164;5.738;2022-09-09T19:32:49;98615.84;;;24.61;35.72
51752;BME280;37828;45.164;5.738;2022-09-09T19:33:02;98625.25;;;24.64;35.96
51752;BME280;37828;45.164;5.738;2022-09-09T19:33:13;98620.94;;;24.63;35.96
51752;BME280;37828;45.164;5.738;2022-09-09T19:33:26;98624.41;;;24.63;35.70
51752;BME280;37828;45.164;5.738;2022-09-09T19:33:37;98627.91;;;24.64;35.86
51752;BME280;37828;45.164;5.738;2022-09-09T19:33:47;98619.09;;;24.63;35.95
51752;BME280;37828;45.164;5.738;2022-09-09T19:33:58;98621.97;;;24.62;35.70
51752;BME280;37828;45.164;5.738;2022-09-09T19:34:09;98630.72;;;24.62;36.05
51752;BME280;37828;45.164;5.738;2022-09-09T19:34:21;98624.63;;;24.62;35.66
51752;BME280;37828;45.164;5.738;2022-09-09T19:34:32;98621.97;;;24.62;35.92
51752;BME280;37828;45.164;5.738;2022-09-09T19:34:42;98623.78;;;24.61;35.99
51752;BME280;37828;45.164;5.738;2022-09-09T19:34:53;98622.78;;;24.62;35.76
51752;BME280;37828;45.164;5.738;2022-09-09T19:35:05;98619.94;;;24.64;35.84
51752;BME280;37828;45.164;5.738;2022-09-09T19:35:15;98620.94;;;24.63;35.94
51752;BME280;37828;45.164;5.738;2022-09-09T19:35:28;98621.75;;;24.63;35.95
51752;BME280;37828;45.164;5.738;2022-09-09T19:35:38;98623.78;;;24.61;35.77
51752;BME280;37828;45.164;5.738;2022-09-09T19:35:59;98621.75;;;24.63;35.72
51752;BME280;37828;45.164;5.738;2022-09-09T19:36:14;98620.94;;;24.63;35.81
51752;BME280;37828;45.164;5.738;2022-09-09T19:36:27;98620.94;;;24.63;35.95
51752;BME280;37828;45.164;5.738;2022-09-09T19:36:39;98616.44;;;24.63;35.88
51752;BME280;37828;45.164;5.738;2022-09-09T19:36:51;98619.09;;;24.63;35.90
51752;BME280;37828;45.164;5.738;2022-09-09T19:37:01;98621.75;;;24.63;35.76
51752;BME280;37828;45.164;5.738;2022-09-09T19:37:12;98625.25;;;24.64;35.71
51752;BME280;37828;45.164;5.738;2022-09-09T19:37:22;98622.59;;;24.64;35.99
51752;BME280;37828;45.164;5.738;2022-09-09T19:37:33;98621.75;;;24.63;36.01
51752;BME280;37828;45.164;5.738;2022-09-09T19:37:43;98612.97;;;24.63;35.86
51752;BME280;37828;45.164;5.738;2022-09-09T19:37:57;98624.41;;;24.63;35.94
51752;BME280;37828;45.164;5.738;2022-09-09T19:38:08;98623.41;;;24.64;35.86
51752;BME280;37828;45.164;5.738;2022-09-09T19:38:18;98619.94;;;24.64;36.06
51752;BME280;37828;45.164;5.738;2022-09-09T19:38:30;98613.78;;;24.63;35.94
51752;BME280;37828;45.164;5.738;2022-09-09T19:38:41;98624.41;;;24.63;36.04
51752;BME280;37828;45.164;5.738;2022-09-09T19:38:53;98623.41;;;24.64;36.07
51752;BME280;37828;45.164;5.738;2022-09-09T19:39:05;98620.75;;;24.64;35.93
51752;BME280;37828;45.164;5.738;2022-09-09T19:39:16;98626.06;;;24.64;36.01
51752;BME280;37828;45.164;5.738;2022-09-09T19:39:27;98626.06;;;24.64;35.87
51752;BME280;37828;45.164;5.738;2022-09-09T19:39:38;98614.41;;;24.65;35.87
51752;BME280;37828;45.164;5.738;2022-09-09T19:39:49;98619.72;;;24.65;35.83
51752;BME280;37828;45.164;5.738;2022-09-09T19:39:59;98618.09;;;24.64;36.06
51752;BME280;37828;45.164;5.738;2022-09-09T19:40:10;98614.63;;;24.64;35.82
51752;BME280;37828;45.164;5.738;2022-09-09T19:40:21;98619.72;;;24.65;35.68
51752;BME280;37828;45.164;5.738;2022-09-09T19:40:34;98621.56;;;24.65;35.83
51752;BME280;37828;45.164;5.738;2022-09-09T19:40:45;98621.38;;;24.66;36.09
51752;BME280;37828;45.164;5.738;2022-09-09T19:41:03;98613.59;;;24.65;35.91
51752;BME280;37828;45.164;5.738;2022-09-09T19:41:17;98620.75;;;24.64;35.98
51752;BME280;37828;45.164;5.738;2022-09-09T19:41:29;98623.41;;;24.64;35.95
51752;BME280;37828;45.164;5.738;2022-09-09T19:41:41;98621.75;;;24.63;36.00
51752;BME280;37828;45.164;5.738;2022-09-09T19:41:51;98624.63;;;24.62;35.82
51752;BME280;37828;45.164;5.738;2022-09-09T19:42:02;98624.41;;;24.63;35.78
51752;BME280;37828;45.164;5.738;2022-09-09T19:42:13;98626.22;;;24.63;35.84
51752;BME280;37828;45.164;5.738;2022-09-09T19:42:24;98622.78;;;24.62;36.05
51752;BME280;37828;45.164;5.738;2022-09-09T19:42:34;98623.59;;;24.63;36.05
51752;BME280;37828;45.164;5.738;2022-09-09T19:42:45;98627.91;;;24.64;35.86
51752;BME280;37828;45.164;5.738;2022-09-09T19:42:58;98621.75;;;24.63;36.02
51752;BME280;37828;45.164;5.738;2022-09-09T19:43:08;98623.41;;;24.64;35.86
51752;BME280;37828;45.164;5.738;2022-09-09T19:43:19;98620.75;;;24.64;36.01
51752;BME280;37828;45.164;5.738;2022-09-09T19:43:30;98626.06;;;24.64;35.98
51752;BME280;37828;45.164;5.738;2022-09-09T19:43:41;98618.09;;;24.64;35.81
51752;BME280;37828;45.164;5.738;2022-09-09T19:43:56;98624.22;;;24.65;35.88
51752;BME280;37828;45.164;5.738;2022-09-09T19:44:12;98624.22;;;24.65;36.03
51752;BME280;37828;45.164;5.738;2022-09-09T19:44:23;98624.22;;;24.65;35.97
51752;BME280;37828;45.164;5.738;2022-09-09T19:44:34;98623.41;;;24.64;36.01
51752;BME280;37828;45.164;5.738;2022-09-09T19:44:45;98624.41;;;24.63;35.81
51752;BME280;37828;45.164;5.738;2022-09-09T19:44:55;98623.59;;;24.63;35.82
51752;BME280;37828;45.164;5.738;2022-09-09T19:45:07;98621.97;;;24.62;35.85
51752;BME280;37828;45.164;5.738;2022-09-09T19:45:19;98628.88;;;24.63;35.86
51752;BME280;37828;45.164;5.738;2022-09-09T19:45:30;98626.22;;;24.63;36.14
51752;BME280;37828;45.164;5.738;2022-09-09T19:45:42;98620.94;;;24.63;35.84
51752;BME280;37828;45.164;5.738;2022-09-09T19:45:57;98625.41;;;24.62;36.05
51752;BME280;37828;45.164;5.738;2022-09-09T19:46:10;98629.09;;;24.61;35.97
51752;BME280;37828;45.164;5.738;2022-09-09T19:46:21;98628.06;;;24.62;35.93
51752;BME280;37828;45.164;5.738;2022-09-09T19:46:34;98632.34;;;24.63;35.88
51752;BME280;37828;45.164;5.738;2022-09-09T19:46:45;98628.88;;;24.63;35.99
51752;BME280;37828;45.164;5.738;2022-09-09T19:46:56;98623.59;;;24.63;35.81
51752;BME280;37828;45.164;5.738;2022-09-09T19:47:09;98625.41;;;24.62;35.89
51752;BME280;37828;45.164;5.738;2022-09-09T19:47:19;98626.22;;;24.63;36.07
51752;BME280;37828;45.164;5.738;2022-09-09T19:47:30;98625.25;;;24.64;35.88
51752;BME280;37828;45.164;5.738;2022-09-09T19:47:41;98628.69;;;24.64;35.86
51752;BME280;37828;45.164;5.738;2022-09-09T19:47:53;98629.69;;;24.63;35.81
51752;BME280;37828;45.164;5.738;2022-09-09T19:48:03;98627.03;;;24.63;35.93
51752;BME280;37828;45.164;5.738;2022-09-09T19:48:15;98629.69;;;24.63;35.92
51752;BME280;37828;45.164;5.738;2022-09-09T19:48:30;98633.19;;;24.64;35.94
51752;BME280;37828;45.164;5.738;2022-09-09T19:48:42;98627.03;;;24.63;36.13
51752;BME280;37828;45.164;5.738;2022-09-09T19:48:52;98627.03;;;24.63;35.92
51752;BME280;37828;45.164;5.738;2022-09-09T19:49:04;98633.19;;;24.64;35.87
51752;BME280;37828;45.164;5.738;2022-09-09T19:49:15;98632.34;;;24.63;36.04
51752;BME280;37828;45.164;5.738;2022-09-09T19:49:26;98632.34;;;24.63;35.87
51752;BME280;37828;45.164;5.738;2022-09-09T19:49:37;98629.69;;;24.63;36.16
51752;BME280;37828;45.164;5.738;2022-09-09T19:49:48;98634.00;;;24.64;36.04
51752;BME280;37828;45.164;5.738;2022-09-09T19:49:59;98629.53;;;24.65;36.24
51752;BME280;37828;45.164;5.738;2022-09-09T19:50:10;98636.66;;;24.64;35.88
51752;BME280;37828;45.164;5.738;2022-09-09T19:50:21;98628.69;;;24.64;36.01
51752;BME280;37828;45.164;5.738;2022-09-09T19:50:34;98627.03;;;24.63;36.06
51752;BME280;37828;45.164;5.738;2022-09-09T19:50:46;98634.00;;;24.64;36.08
51752;BME280;37828;45.164;5.738;2022-09-09T19:51:01;98636.66;;;24.64;36.16
51752;BME280;37828;45.164;5.738;2022-09-09T19:51:15;98632.97;;;24.65;36.24
51752;BME280;37828;45.164;5.738;2022-09-09T19:51:28;98632.16;;;24.65;36.35
51752;BME280;37828;45.164;5.738;2022-09-09T19:51:39;98629.53;;;24.65;36.39
51752;BME280;37828;45.164;5.738;2022-09-09T19:51:50;98634.81;;;24.65;36.41
51752;BME280;37828;45.164;5.738;2022-09-09T19:52:03;98639.09;;;24.66;36.17
51752;BME280;37828;45.164;5.738;2022-09-09T19:52:16;98629.53;;;24.65;36.41
51752;BME280;37828;45.164;5.738;2022-09-09T19:52:27;98632.16;;;24.65;36.46
51752;BME280;37828;45.164;5.738;2022-09-09T19:52:37;98634.00;;;24.64;36.37
51752;BME280;37828;45.164;5.738;2022-09-09T19:52:48;98633.78;;;24.66;36.34
51752;BME280;37828;45.164;5.738;2022-09-09T19:52:59;98637.47;;;24.65;36.17
51752;BME280;37828;45.164;5.738;2022-09-09T19:53:09;98638.28;;;24.65;36.36
51752;BME280;37828;45.164;5.738;2022-09-09T19:53:20;98634.81;;;24.65;36.31
51752;BME280;37828;45.164;5.738;2022-09-09T19:53:35;98634.63;;;24.66;36.20
51752;BME280;37828;45.164;5.738;2022-09-09T19:53:54;98640.13;;;24.65;36.17
51752;BME280;37828;45.164;5.738;2022-09-09T19:54:10;98640.13;;;24.65;36.44
51752;BME280;37828;45.164;5.738;2022-09-09T19:54:23;98638.28;;;24.65;36.15
51752;BME280;37828;45.164;5.738;2022-09-09T19:54:34;98635.63;;;24.65;36.42
51752;BME280;37828;45.164;5.738;2022-09-09T19:54:45;98639.31;;;24.64;36.15
51752;BME280;37828;45.164;5.738;2022-09-09T19:54:55;98632.16;;;24.65;36.42
51752;BME280;37828;45.164;5.738;2022-09-09T19:55:07;98639.09;;;24.66;36.42
51752;BME280;37828;45.164;5.738;2022-09-09T19:55:18;98632.00;;;24.66;36.54
51752;BME280;37828;45.164;5.738;2022-09-09T19:55:29;98632.00;;;24.66;36.18
51752;BME280;37828;45.164;5.738;2022-09-09T19:55:40;98638.28;;;24.65;36.35
51752;BME280;37828;45.164;5.738;2022-09-09T19:55:51;98641.75;;;24.66;36.25
51752;BME280;37828;45.164;5.738;2022-09-09T19:56:02;98639.31;;;24.64;36.21
51752;BME280;37828;45.164;5.738;2022-09-09T19:56:14;98636.66;;;24.64;36.12
51752;BME280;37828;45.164;5.738;2022-09-09T19:56:27;98640.13;;;24.65;36.25
51752;BME280;37828;45.164;5.738;2022-09-09T19:56:40;98638.28;;;24.65;36.13
51752;BME280;37828;45.164;5.738;2022-09-09T19:56:51;98641.97;;;24.64;36.34
51752;BME280;37828;45.164;5.738;2022-09-09T19:57:02;98640.94;;;24.65;36.42
51752;BME280;37828;45.164;5.738;2022-09-09T19:57:13;98639.31;;;24.64;36.18
51752;BME280;37828;45.164;5.738;2022-09-09T19:57:23;98640.31;;;24.63;36.42
51752;BME280;37828;45.164;5.738;2022-09-09T19:57:37;98639.31;;;24.64;36.13
51752;BME280;37828;45.164;5.738;2022-09-09T19:57:49;98645.25;;;24.66;36.39
51752;BME280;37828;45.164;5.738;2022-09-09T19:57:59;98639.09;;;24.66;36.22
51752;BME280;37828;45.164;5.738;2022-09-09T19:58:11;98641.75;;;24.66;36.20
51752;BME280;37828;45.164;5.738;2022-09-09T19:58:23;98641.75;;;24.66;36.33
51752;BME280;37828;45.164;5.738;2022-09-09T19:58:36;98636.66;;;24.64;35.98
51752;BME280;37828;45.164;5.738;2022-09-09T19:58:50;98642.78;;;24.65;36.06
51752;BME280;37828;45.164;5.738;2022-09-09T19:59:02;98646.25;;;24.65;36.36
51752;BME280;37828;45.164;5.738;2022-09-09T19:59:13;98637.47;;;24.65;36.41
51752;BME280;37828;45.164;5.738;2022-09-09T19:59:24;98639.09;;;24.66;36.03
51752;BME280;37828;45.164;5.738;2022-09-09T19:59:36;98637.28;;;24.66;36.33
51752;BME280;37828;45.164;5.738;2022-09-09T19:59:47;98640.94;;;24.65;36.35
51752;BME280;37828;45.164;5.738;2022-09-09T19:59:58;98639.09;;;24.66;36.20
51752;BME280;37828;45.164;5.738;2022-09-09T20:00:10;98643.59;;;24.65;36.29
51752;BME280;37828;45.164;5.738;2022-09-09T20:00:21;98638.28;;;24.65;36.33
51752;BME280;37828;45.164;5.738;2022-09-09T20:00:32;98642.59;;;24.66;36.22
51752;BME280;37828;45.164;5.738;2022-09-09T20:00:44;98644.41;;;24.66;36.29
51752;BME280;37828;45.164;5.738;2022-09-09T20:00:55;98638.28;;;24.65;36.25
51752;BME280;37828;45.164;5.738;2022-09-09T20:01:12;98641.75;;;24.66;36.17
51752;BME280;37828;45.164;5.738;2022-09-09T20:01:26;98641.97;;;24.64;36.50
51752;BME280;37828;45.164;5.738;2022-09-09T20:01:40;98645.25;;;24.66;36.46
51752;BME280;37828;45.164;5.738;2022-09-09T20:01:53;98637.28;;;24.66;36.28
51752;BME280;37828;45.164;5.738;2022-09-09T20:02:06;98645.25;;;24.66;36.54
51752;BME280;37828;45.164;5.738;2022-09-09T20:02:16;98643.59;;;24.65;36.38
51752;BME280;37828;45.164;5.738;2022-09-09T20:02:27;98642.59;;;24.66;36.10
51752;BME280;37828;45.164;5.738;2022-09-09T20:02:38;98643.59;;;24.65;36.33
51752;BME280;37828;45.164;5.738;2022-09-09T20:02:48;98645.25;;;24.66;36.29
51752;BME280;37828;45.164;5.738;2022-09-09T20:03:00;98645.44;;;24.65;36.47
51752;BME280;37828;45.164;5.738;2022-09-09T20:03:10;98644.63;;;24.64;36.19
51752;BME280;37828;45.164;5.738;2022-09-09T20:03:21;98646.25;;;24.65;36.19
51752;BME280;37828;45.164;5.738;2022-09-09T20:03:33;98642.78;;;24.65;36.33